Time;durP1;ratioP1;P1;durP2;ratioP2;P2;SDS_P1;SDS_P2;PMS_P1;PMS_P2;Temp;Humidity;BMP_temperature;BMP_pressure;BME280_temperature;BME280_humidity;BME280_pressure;Samples;Min_cycle;Max_cycle;Signal;HPM_P1;HPM_P2
2023/09/20 17:38:01;;;;;;;2.47;0.70;;;19.90;99.90;;;;;;5065167;28;21025;-62
2023/09/20 17:40:30;;;;;;;1.47;0.70;;;19.70;99.90;;;;;;5036902;28;20897;-62
2023/09/20 17:42:56;;;;;;;1.40;0.60;;;19.60;99.90;;;;;;5042818;28;20430;-62
2023/09/20 17:45:22;;;;;;;1.60;0.70;;;19.50;99.90;;;;;;5038583;28;20416;-62
2023/09/20 17:47:48;;;;;;;2.27;1.20;;;19.40;99.90;;;;;;5046386;28;20935;-62
2023/09/20 17:50:14;;;;;;;4.43;1.50;;;19.30;99.90;;;;;;5048791;28;20264;-62
2023/09/20 17:52:46;;;;;;;3.33;1.33;;;19.20;99.90;;;;;;5057448;28;20490;-62
2023/09/20 17:55:12;;;;;;;2.43;1.63;;;19.10;99.90;;;;;;5049643;28;20278;-62
2023/09/20 17:57:38;;;;;;;2.80;1.60;;;19.00;99.90;;;;;;5055255;28;20478;-62
2023/09/20 18:00:13;;;;;;;3.17;1.43;;;18.90;99.90;;;;;;5049255;28;20421;-62
2023/09/20 18:02:39;;;;;;;3.37;1.20;;;18.80;99.90;;;;;;5053717;28;20184;-62
2023/09/20 18:05:06;;;;;;;5.57;1.87;;;18.80;99.90;;;;;;5046381;28;20431;-62
2023/09/20 18:07:32;;;;;;;4.37;1.93;;;18.60;99.90;;;;;;5056845;28;20420;-62
2023/09/20 18:09:58;;;;;;;4.50;1.40;;;18.60;99.90;;;;;;5046859;28;20420;-62
2023/09/20 18:12:23;;;;;;;2.50;1.17;;;18.50;99.90;;;;;;5058440;28;20193;-62
2023/09/20 18:14:49;;;;;;;2.40;1.20;;;18.40;99.90;;;;;;5041664;28;20586;-62
2023/09/20 18:17:17;;;;;;;1.83;1.27;;;18.30;99.90;;;;;;5059582;28;20633;-62
2023/09/20 18:19:43;;;;;;;5.57;1.03;;;18.30;99.90;;;;;;5045365;28;20209;-61
2023/09/20 18:22:12;;;;;;;3.47;1.57;;;18.20;99.90;;;;;;5053923;28;20467;-61
2023/09/20 18:24:41;;;;;;;2.17;0.97;;;18.20;99.90;;;;;;5049688;28;20515;-61
2023/09/20 18:27:07;;;;;;;3.30;1.40;;;18.10;99.90;;;;;;5057276;28;20435;-61
2023/09/20 18:29:32;;;;;;;4.13;1.13;;;18.00;99.90;;;;;;5055670;28;20568;-61
2023/09/20 18:31:58;;;;;;;2.60;0.90;;;18.00;99.90;;;;;;5053392;28;20181;-61
2023/09/20 18:34:28;;;;;;;2.30;1.23;;;17.90;99.90;;;;;;5054834;28;20635;-61
2023/09/20 18:36:54;;;;;;;2.93;1.20;;;17.90;99.90;;;;;;5054737;28;20215;-61
2023/09/20 18:39:19;;;;;;;3.10;1.53;;;17.90;99.90;;;;;;5055459;28;20432;-61
2023/09/20 18:41:45;;;;;;;3.57;1.60;;;17.80;99.90;;;;;;5053101;28;20182;-61
2023/09/20 18:44:11;;;;;;;4.90;1.80;;;17.70;99.90;;;;;;5052159;28;20182;-61
2023/09/20 18:46:37;;;;;;;4.93;2.40;;;17.70;99.90;;;;;;5052035;28;20558;-61
2023/09/20 18:49:04;;;;;;;2.43;1.57;;;17.60;99.90;;;;;;5040314;28;20432;-62
2023/09/20 18:51:29;;;;;;;3.57;1.73;;;17.60;99.90;;;;;;5037665;28;20182;-62
2023/09/20 18:53:56;;;;;;;2.53;1.27;;;17.50;99.90;;;;;;5038454;28;20432;-62
2023/09/20 18:56:21;;;;;;;1.90;1.20;;;17.40;99.90;;;;;;5033512;28;20207;-62
2023/09/20 18:58:47;;;;;;;3.47;1.80;;;17.40;99.90;;;;;;5038449;28;20430;-62
2023/09/20 19:01:19;;;;;;;2.10;1.37;;;17.40;99.90;;;;;;5036102;28;20182;-62
2023/09/20 19:03:46;;;;;;;2.90;1.20;;;17.30;99.90;;;;;;5035524;28;20228;-62
2023/09/20 19:06:13;;;;;;;12.23;1.10;;;17.30;99.90;;;;;;5029340;28;20773;-62
2023/09/20 19:08:39;;;;;;;3.97;1.50;;;17.20;99.90;;;;;;5030531;28;20418;-62
2023/09/20 19:11:05;;;;;;;2.63;1.33;;;17.20;99.90;;;;;;5032469;28;20752;-62
2023/09/20 19:13:33;;;;;;;2.97;1.07;;;17.20;99.90;;;;;;5033644;28;20666;-63
2023/09/20 19:15:58;;;;;;;1.70;0.80;;;17.10;99.90;;;;;;5028296;28;20892;-62
2023/09/20 19:18:26;;;;;;;2.57;1.20;;;17.10;99.90;;;;;;5039500;28;20422;-62
2023/09/20 19:20:52;;;;;;;1.47;0.90;;;17.00;99.90;;;;;;5036663;28;20229;-62
2023/09/20 19:23:18;;;;;;;2.17;1.33;;;17.00;99.90;;;;;;5040740;28;20418;-62
2023/09/20 19:25:46;;;;;;;1.87;1.07;;;16.90;99.90;;;;;;5036133;28;20416;-62
2023/09/20 19:28:13;;;;;;;2.80;1.37;;;16.90;99.90;;;;;;5049514;28;20177;-63
2023/09/20 19:30:39;;;;;;;2.40;1.10;;;16.80;99.90;;;;;;5035297;28;20417;-62
2023/09/20 19:33:05;;;;;;;2.03;1.07;;;16.80;99.90;;;;;;5047132;28;21011;-62
2023/09/20 19:35:31;;;;;;;2.67;1.27;;;16.80;99.90;;;;;;5038334;28;20261;-62
2023/09/20 19:37:56;;;;;;;5.73;1.00;;;16.80;99.90;;;;;;5044617;28;20560;-62
2023/09/20 19:40:23;;;;;;;2.50;1.10;;;16.80;99.90;;;;;;5037738;28;20201;-62
2023/09/20 19:42:53;;;;;;;16.37;1.40;;;16.70;99.90;;;;;;5042476;28;20236;-62
2023/09/20 19:45:19;;;;;;;2.07;1.10;;;16.70;99.90;;;;;;5032156;28;20429;-63
2023/09/20 19:47:46;;;;;;;3.77;1.43;;;16.70;99.90;;;;;;5032504;28;20951;-62
2023/09/20 19:50:14;;;;;;;3.00;1.10;;;16.60;99.90;;;;;;5034085;28;20433;-62
2023/09/20 19:52:40;;;;;;;3.13;1.30;;;16.60;99.90;;;;;;5040533;28;20452;-62
2023/09/20 19:55:07;;;;;;;2.37;1.40;;;16.50;99.90;;;;;;5036445;28;20457;-63
2023/09/20 19:57:36;;;;;;;2.17;1.10;;;16.50;99.90;;;;;;5038539;28;20874;-62
2023/09/20 20:00:16;;;;;;;2.87;1.33;;;16.50;99.90;;;;;;5032748;28;20424;-62
2023/09/20 20:02:46;;;;;;;2.67;1.50;;;16.40;99.90;;;;;;5032326;28;20445;-62
2023/09/20 20:05:13;;;;;;;2.83;1.17;;;16.30;99.90;;;;;;5031498;28;20982;-62
2023/09/20 20:07:39;;;;;;;3.00;1.37;;;16.30;99.90;;;;;;5035691;28;20459;-62
2023/09/20 20:10:08;;;;;;;2.50;1.27;;;16.30;99.90;;;;;;5031509;28;20437;-62
2023/09/20 20:12:35;;;;;;;2.40;1.37;;;16.30;99.90;;;;;;5045674;28;20420;-62
2023/09/20 20:15:04;;;;;;;2.23;1.20;;;16.30;99.90;;;;;;5024063;28;20910;-62
2023/09/20 20:17:32;;;;;;;3.73;1.60;;;16.20;99.90;;;;;;5036968;28;20503;-62
2023/09/20 20:19:58;;;;;;;2.03;0.90;;;16.20;99.90;;;;;;5033440;28;20555;-62
2023/09/20 20:22:24;;;;;;;2.60;1.57;;;16.20;99.90;;;;;;5043603;28;20408;-62
2023/09/20 20:24:49;;;;;;;3.53;1.23;;;16.20;99.90;;;;;;5033546;28;20540;-62
2023/09/20 20:27:15;;;;;;;3.70;1.53;;;16.20;99.90;;;;;;5044649;28;20530;-62
2023/09/20 20:29:41;;;;;;;3.40;1.20;;;16.20;99.90;;;;;;5039047;28;20190;-62
2023/09/20 20:32:07;;;;;;;6.50;1.70;;;16.20;99.90;;;;;;5040391;28;20189;-62
2023/09/20 20:34:39;;;;;;;2.97;1.20;;;16.10;99.90;;;;;;5032347;28;20433;-62
2023/09/20 20:37:06;;;;;;;2.53;1.20;;;16.10;99.90;;;;;;5024538;28;20255;-62
2023/09/20 20:39:31;;;;;;;2.53;1.60;;;16.10;99.90;;;;;;5033675;28;20466;-62
2023/09/20 20:41:57;;;;;;;2.17;1.20;;;16.10;99.90;;;;;;5039327;28;20421;-62
2023/09/20 20:44:23;;;;;;;3.83;1.27;;;16.00;99.90;;;;;;5039278;28;20204;-62
2023/09/20 20:46:48;;;;;;;5.90;1.40;;;16.00;99.90;;;;;;5037732;28;20182;-62
2023/09/20 20:49:14;;;;;;;3.00;1.43;;;16.00;99.90;;;;;;5037267;28;20580;-63
2023/09/20 20:51:43;;;;;;;2.63;1.20;;;16.00;99.90;;;;;;5035761;28;20178;-62
2023/09/20 20:54:13;;;;;;;5.30;1.30;;;16.00;99.90;;;;;;5036884;28;20206;-62
2023/09/20 20:56:39;;;;;;;3.57;1.07;;;15.90;99.90;;;;;;5036180;28;20522;-62
2023/09/20 20:59:05;;;;;;;2.63;0.93;;;15.90;99.90;;;;;;5035254;28;20421;-62
2023/09/20 21:01:31;;;;;;;3.90;1.20;;;15.90;99.90;;;;;;5035931;28;20567;-62
2023/09/20 21:03:57;;;;;;;3.73;1.43;;;15.90;99.90;;;;;;5033278;28;20421;-63
2023/09/20 21:06:23;;;;;;;2.60;1.37;;;15.80;99.90;;;;;;5018137;28;20859;-62
2023/09/20 21:08:51;;;;;;;5.40;1.83;;;15.80;99.90;;;;;;5034289;28;20467;-62
2023/09/20 21:11:18;;;;;;;6.40;1.37;;;15.70;99.90;;;;;;5036700;28;20195;-62
2023/09/20 21:13:46;;;;;;;2.93;1.07;;;15.70;99.90;;;;;;5036416;28;20425;-62
2023/09/20 21:16:14;;;;;;;4.80;1.63;;;15.70;99.90;;;;;;5032042;28;20539;-62
2023/09/20 21:18:39;;;;;;;2.50;1.07;;;15.70;99.90;;;;;;5027718;28;20426;-62
2023/09/20 21:21:05;;;;;;;2.47;1.40;;;15.70;99.90;;;;;;5028775;28;20428;-62
2023/09/20 21:23:39;;;;;;;3.17;1.40;;;15.60;99.90;;;;;;5031323;28;20619;-62
2023/09/20 21:26:07;;;;;;;2.87;1.20;;;15.60;99.90;;;;;;5028791;28;20897;-62
2023/09/20 21:28:36;;;;;;;2.00;1.30;;;15.60;99.90;;;;;;5030181;28;20420;-62
2023/09/20 21:31:02;;;;;;;3.63;1.67;;;15.60;99.90;;;;;;5035174;28;20980;-62
2023/09/20 21:33:27;;;;;;;3.60;0.87;;;15.50;99.90;;;;;;5047325;28;20412;-62
2023/09/20 21:35:53;;;;;;;3.20;1.47;;;15.50;99.90;;;;;;5033282;28;20939;-62
2023/09/20 21:38:19;;;;;;;1.90;1.20;;;15.50;99.90;;;;;;5046802;28;20186;-62
2023/09/20 21:40:45;;;;;;;2.20;1.20;;;15.50;99.90;;;;;;5031995;28;20905;-63
2023/09/20 21:43:11;;;;;;;2.13;0.90;;;15.50;99.90;;;;;;5032533;28;20650;-63
2023/09/20 21:45:37;;;;;;;2.90;1.33;;;15.50;99.90;;;;;;5032103;28;20178;-62
2023/09/20 21:48:03;;;;;;;1.93;0.80;;;15.40;99.90;;;;;;5035011;28;20198;-62
2023/09/20 21:50:29;;;;;;;2.20;0.77;;;15.40;99.90;;;;;;5020606;28;20484;-62
2023/09/20 21:52:57;;;;;;;4.27;1.60;;;15.40;99.90;;;;;;5025951;28;20440;-63
2023/09/20 21:55:27;;;;;;;2.43;1.07;;;15.30;99.90;;;;;;5023231;28;20682;-62
2023/09/20 21:57:53;;;;;;;3.53;1.10;;;15.30;99.90;;;;;;5025366;28;20476;-62
2023/09/20 22:02:49;;;;;;;3.27;1.53;;;15.20;99.90;;;;;;5025253;28;20413;-62
2023/09/20 22:05:15;;;;;;;2.60;1.60;;;15.20;99.90;;;;;;5020636;28;20434;-62
2023/09/20 22:07:46;;;;;;;2.87;1.70;;;15.20;99.90;;;;;;5025937;28;20524;-62
2023/09/20 22:10:16;;;;;;;1.50;0.90;;;15.10;99.90;;;;;;5021457;28;20242;-62
2023/09/20 22:12:46;;;;;;;4.27;1.17;;;15.10;99.90;;;;;;5027516;28;20459;-62
2023/09/20 22:15:23;;;;;;;3.10;1.37;;;15.10;99.90;;;;;;5020586;28;20433;-62
2023/09/20 22:17:50;;;;;;;2.53;1.60;;;15.00;99.90;;;;;;5028245;28;20477;-62
2023/09/20 22:20:18;;;;;;;3.60;1.10;;;15.00;99.90;;;;;;5021809;28;20432;-62
2023/09/20 22:22:49;;;;;;;2.13;0.97;;;15.00;99.90;;;;;;5029953;28;20475;-62
2023/09/20 22:25:17;;;;;;;3.00;1.47;;;15.00;99.90;;;;;;5023487;28;20432;-62
2023/09/20 22:27:43;;;;;;;1.50;0.80;;;14.90;99.90;;;;;;5028389;28;20467;-62
2023/09/20 22:30:10;;;;;;;4.53;1.60;;;15.00;99.90;;;;;;5024309;28;20464;-62
2023/09/20 22:32:40;;;;;;;4.40;1.47;;;15.00;99.90;;;;;;5027581;28;20432;-62
2023/09/20 22:35:12;;;;;;;2.07;0.90;;;15.00;99.90;;;;;;5024613;28;20484;-62
2023/09/20 22:37:41;;;;;;;2.00;0.93;;;15.00;99.90;;;;;;5026798;28;20976;-62
2023/09/20 22:40:13;;;;;;;2.23;1.33;;;15.00;99.90;;;;;;5025905;28;20475;-62
2023/09/20 22:42:39;;;;;;;2.03;0.97;;;15.00;99.90;;;;;;5028566;28;20504;-62
2023/09/20 22:45:09;;;;;;;2.83;1.30;;;15.00;99.90;;;;;;5025310;28;20426;-62
2023/09/20 22:47:35;;;;;;;2.23;1.33;;;15.10;99.90;;;;;;5027135;28;20464;-62
2023/09/20 22:50:00;;;;;;;5.43;1.30;;;15.00;99.90;;;;;;5026146;28;20465;-63
2023/09/20 22:52:26;;;;;;;2.73;1.30;;;15.00;99.90;;;;;;5028092;28;20185;-62
2023/09/20 22:54:52;;;;;;;3.53;1.10;;;15.00;99.90;;;;;;5026855;28;20187;-63
2023/09/20 22:57:21;;;;;;;1.40;0.70;;;15.00;99.90;;;;;;5027790;28;20686;-62
2023/09/20 22:59:48;;;;;;;3.17;1.20;;;15.00;99.90;;;;;;5028448;28;20425;-62
2023/09/20 23:02:14;;;;;;;2.83;1.40;;;15.00;99.90;;;;;;5027330;28;20461;-62
2023/09/20 23:04:39;;;;;;;1.70;1.17;;;15.00;99.90;;;;;;5026336;28;20448;-62
2023/09/20 23:07:05;;;;;;;1.80;0.90;;;15.00;99.90;;;;;;5024573;28;20214;-62
2023/09/20 23:09:36;;;;;;;1.40;0.80;;;14.90;99.90;;;;;;5029112;28;20194;-63
2023/09/20 23:12:01;;;;;;;2.20;1.00;;;14.90;99.90;;;;;;5026409;28;20519;-62
2023/09/20 23:14:27;;;;;;;5.33;0.93;;;15.00;99.90;;;;;;5028472;28;20536;-62
2023/09/20 23:16:52;;;;;;;2.30;1.13;;;14.90;99.90;;;;;;5026295;28;20209;-62
2023/09/20 23:19:18;;;;;;;3.77;1.23;;;14.90;99.90;;;;;;5029981;28;20232;-62
2023/09/20 23:21:44;;;;;;;2.53;1.30;;;14.90;99.90;;;;;;5026383;28;20258;-62
2023/09/20 23:24:11;;;;;;;3.87;1.50;;;14.90;99.90;;;;;;5028362;28;20333;-62
2023/09/20 23:26:36;;;;;;;2.33;1.13;;;14.90;99.90;;;;;;5021308;28;20186;-62
2023/09/20 23:29:05;;;;;;;1.73;0.83;;;14.90;99.90;;;;;;5029761;28;20436;-63
2023/09/20 23:31:36;;;;;;;7.87;1.13;;;14.90;99.90;;;;;;5019085;28;20186;-62
2023/09/20 23:34:02;;;;;;;5.33;0.97;;;14.80;99.90;;;;;;5031009;28;20940;-62
2023/09/20 23:36:33;;;;;;;2.23;1.00;;;14.80;99.90;;;;;;5029375;28;20501;-62
2023/09/20 23:39:01;;;;;;;2.60;1.23;;;14.80;99.90;;;;;;5030069;28;20468;-62
2023/09/20 23:41:27;;;;;;;2.13;1.03;;;14.80;99.90;;;;;;5021957;28;20811;-62
2023/09/20 23:43:54;;;;;;;3.43;1.23;;;14.70;99.90;;;;;;5029778;28;20451;-62
2023/09/20 23:46:26;;;;;;;1.83;1.03;;;14.70;99.90;;;;;;5021293;28;20426;-62
2023/09/20 23:48:52;;;;;;;2.73;1.23;;;14.70;99.90;;;;;;5030165;28;20520;-63
2023/09/20 23:51:19;;;;;;;1.53;0.90;;;14.70;99.90;;;;;;5017732;28;20472;-62
2023/09/20 23:53:47;;;;;;;2.93;1.60;;;14.60;99.90;;;;;;5025219;28;20427;-62
2023/09/20 23:56:13;;;;;;;1.60;0.80;;;14.60;99.90;;;;;;5026689;28;21012;-62
2023/09/20 23:58:39;;;;;;;4.30;1.60;;;14.70;99.90;;;;;;5029762;28;20557;-62
